sensor_id;sensor_type;location;lat;lon;timestamp;P1;durP1;ratioP1;P2;durP2;ratioP2
53688;SDS011;39583;54.682;30.662;2022-11-15T06:52:14;16.48;;;9.68;;
53688;SDS011;39583;54.682;30.662;2022-11-15T06:54:58;14.98;;;8.30;;
53688;SDS011;39583;54.682;30.662;2022-11-15T06:57:49;12.95;;;6.80;;
53688;SDS011;39583;54.682;30.662;2022-11-15T07:00:35;11.98;;;6.63;;
53688;SDS011;39583;54.682;30.662;2022-11-15T07:03:20;12.02;;;6.70;;
53688;SDS011;39583;54.682;30.662;2022-11-15T07:06:05;12.95;;;6.75;;
53688;SDS011;39583;54.682;30.662;2022-11-15T07:08:50;14.18;;;7.28;;
53688;SDS011;39583;54.682;30.662;2022-11-15T09:15:12;7.03;;;6.00;;
53688;SDS011;39583;54.682;30.662;2022-11-15T09:18:00;8.32;;;6.13;;
53688;SDS011;39583;54.682;30.662;2022-11-15T09:20:44;9.23;;;4.22;;
53688;SDS011;39583;54.682;30.662;2022-11-15T09:23:29;6.13;;;4.15;;
53688;SDS011;39583;54.682;30.662;2022-11-15T09:26:14;5.55;;;3.60;;
53688;SDS011;39583;54.682;30.662;2022-11-15T09:28:58;5.63;;;3.60;;
53688;SDS011;39583;54.682;30.662;2022-11-15T09:31:43;8.93;;;3.47;;
53688;SDS011;39583;54.682;30.662;2022-11-15T09:34:28;6.47;;;3.67;;
53688;SDS011;39583;54.682;30.662;2022-11-15T09:37:12;6.47;;;3.22;;
53688;SDS011;39583;54.682;30.662;2022-11-15T09:39:57;4.05;;;2.95;;
53688;SDS011;39583;54.682;30.662;2022-11-15T12:55:46;5.00;;;4.28;;
53688;SDS011;39583;54.682;30.662;2022-11-15T13:01:57;4.47;;;2.65;;
53688;SDS011;39583;54.682;30.662;2022-11-15T13:06:49;4.38;;;2.28;;
53688;SDS011;39583;54.682;30.662;2022-11-15T13:12:47;3.20;;;1.90;;
53688;SDS011;39583;54.682;30.662;2022-11-15T13:17:48;4.50;;;2.25;;
53688;SDS011;39583;54.682;30.662;2022-11-15T13:22:52;3.75;;;2.00;;
53688;SDS011;39583;54.682;30.662;2022-11-15T13:25:45;2.55;;;1.80;;
53688;SDS011;39583;54.682;30.662;2022-11-15T13:28:31;3.85;;;2.13;;
53688;SDS011;39583;54.682;30.662;2022-11-15T13:31:41;4.30;;;2.25;;
53688;SDS011;39583;54.682;30.662;2022-11-15T13:34:01;3.28;;;1.88;;
53688;SDS011;39583;54.682;30.662;2022-11-15T13:36:39;6.53;;;2.28;;
53688;SDS011;39583;54.682;30.662;2022-11-15T13:39:12;2.17;;;1.77;;
53688;SDS011;39583;54.682;30.662;2022-11-15T13:41:51;3.72;;;2.00;;
53688;SDS011;39583;54.682;30.662;2022-11-15T13:44:25;5.30;;;2.63;;
53688;SDS011;39583;54.682;30.662;2022-11-15T13:47:06;10.10;;;2.60;;
53688;SDS011;39583;54.682;30.662;2022-11-15T13:49:39;3.40;;;2.15;;
53688;SDS011;39583;54.682;30.662;2022-11-15T13:52:07;3.45;;;2.15;;
53688;SDS011;39583;54.682;30.662;2022-11-15T13:57:24;6.28;;;2.40;;
53688;SDS011;39583;54.682;30.662;2022-11-15T13:59:59;3.75;;;2.03;;
53688;SDS011;39583;54.682;30.662;2022-11-15T14:02:37;4.22;;;2.63;;
53688;SDS011;39583;54.682;30.662;2022-11-15T14:05:14;4.32;;;2.25;;
53688;SDS011;39583;54.682;30.662;2022-11-15T14:08:57;4.65;;;2.67;;
53688;SDS011;39583;54.682;30.662;2022-11-15T14:10:41;4.35;;;2.80;;
53688;SDS011;39583;54.682;30.662;2022-11-15T14:13:29;5.03;;;2.72;;
53688;SDS011;39583;54.682;30.662;2022-11-15T14:16:12;4.90;;;2.63;;
53688;SDS011;39583;54.682;30.662;2022-11-15T14:21:15;9.77;;;3.00;;
53688;SDS011;39583;54.682;30.662;2022-11-15T14:23:41;3.47;;;2.55;;
53688;SDS011;39583;54.682;30.662;2022-11-15T14:26:11;5.47;;;3.10;;
53688;SDS011;39583;54.682;30.662;2022-11-15T14:28:56;3.80;;;2.85;;
53688;SDS011;39583;54.682;30.662;2022-11-15T14:31:22;10.68;;;3.10;;
53688;SDS011;39583;54.682;30.662;2022-11-15T14:33:48;5.53;;;2.67;;
53688;SDS011;39583;54.682;30.662;2022-11-15T14:36:16;5.05;;;2.70;;
53688;SDS011;39583;54.682;30.662;2022-11-15T14:38:46;4.63;;;2.70;;
53688;SDS011;39583;54.682;30.662;2022-11-15T14:41:23;5.25;;;2.60;;
53688;SDS011;39583;54.682;30.662;2022-11-15T14:43:51;4.70;;;2.60;;
53688;SDS011;39583;54.682;30.662;2022-11-15T14:46:18;3.38;;;2.58;;
53688;SDS011;39583;54.682;30.662;2022-11-15T14:48:44;5.18;;;3.00;;
53688;SDS011;39583;54.682;30.662;2022-11-15T14:51:14;4.47;;;2.95;;
53688;SDS011;39583;54.682;30.662;2022-11-15T14:53:42;3.67;;;2.50;;
53688;SDS011;39583;54.682;30.662;2022-11-15T14:56:09;2.92;;;2.33;;
53688;SDS011;39583;54.682;30.662;2022-11-15T14:58:36;4.40;;;2.67;;
53688;SDS011;39583;54.682;30.662;2022-11-15T15:01:05;3.83;;;2.85;;
53688;SDS011;39583;54.682;30.662;2022-11-15T15:03:42;3.25;;;2.20;;
53688;SDS011;39583;54.682;30.662;2022-11-15T15:06:09;4.30;;;2.50;;
53688;SDS011;39583;54.682;30.662;2022-11-15T15:08:38;5.18;;;2.60;;
53688;SDS011;39583;54.682;30.662;2022-11-15T15:11:16;4.18;;;2.42;;
53688;SDS011;39583;54.682;30.662;2022-11-15T15:13:47;3.70;;;2.67;;
53688;SDS011;39583;54.682;30.662;2022-11-15T15:16:13;3.67;;;2.13;;
53688;SDS011;39583;54.682;30.662;2022-11-15T15:18:39;3.55;;;2.05;;
53688;SDS011;39583;54.682;30.662;2022-11-15T15:21:12;3.65;;;2.45;;
53688;SDS011;39583;54.682;30.662;2022-11-15T15:23:42;2.70;;;2.20;;
53688;SDS011;39583;54.682;30.662;2022-11-15T15:26:08;4.15;;;2.42;;
53688;SDS011;39583;54.682;30.662;2022-11-15T15:28:35;6.55;;;2.47;;
53688;SDS011;39583;54.682;30.662;2022-11-15T15:31:01;5.03;;;2.40;;
53688;SDS011;39583;54.682;30.662;2022-11-15T15:33:27;4.32;;;2.60;;
53688;SDS011;39583;54.682;30.662;2022-11-15T15:35:53;3.40;;;2.53;;
53688;SDS011;39583;54.682;30.662;2022-11-15T15:38:19;4.15;;;2.33;;
53688;SDS011;39583;54.682;30.662;2022-11-15T15:40:47;5.47;;;2.70;;
53688;SDS011;39583;54.682;30.662;2022-11-15T15:43:13;6.53;;;3.00;;
53688;SDS011;39583;54.682;30.662;2022-11-15T15:45:40;3.25;;;2.35;;
53688;SDS011;39583;54.682;30.662;2022-11-15T15:48:11;3.88;;;2.67;;
53688;SDS011;39583;54.682;30.662;2022-11-15T15:50:39;3.65;;;2.80;;
53688;SDS011;39583;54.682;30.662;2022-11-15T15:53:05;5.50;;;2.95;;
53688;SDS011;39583;54.682;30.662;2022-11-15T15:55:33;4.05;;;2.88;;
53688;SDS011;39583;54.682;30.662;2022-11-15T15:58:00;5.47;;;2.47;;
53688;SDS011;39583;54.682;30.662;2022-11-15T16:00:27;3.30;;;2.45;;
53688;SDS011;39583;54.682;30.662;2022-11-15T16:02:54;4.38;;;2.80;;
53688;SDS011;39583;54.682;30.662;2022-11-15T16:05:21;5.00;;;2.88;;
53688;SDS011;39583;54.682;30.662;2022-11-15T16:07:47;5.70;;;2.70;;
53688;SDS011;39583;54.682;30.662;2022-11-15T16:10:24;5.30;;;3.15;;
53688;SDS011;39583;54.682;30.662;2022-11-15T16:12:52;4.35;;;2.50;;
53688;SDS011;39583;54.682;30.662;2022-11-15T16:15:19;4.32;;;2.75;;
53688;SDS011;39583;54.682;30.662;2022-11-15T16:17:48;4.63;;;2.78;;
53688;SDS011;39583;54.682;30.662;2022-11-15T16:20:36;4.75;;;2.88;;
53688;SDS011;39583;54.682;30.662;2022-11-15T16:23:09;4.57;;;2.78;;
53688;SDS011;39583;54.682;30.662;2022-11-15T16:25:44;5.72;;;3.17;;
53688;SDS011;39583;54.682;30.662;2022-11-15T16:28:17;4.35;;;2.40;;
53688;SDS011;39583;54.682;30.662;2022-11-15T16:30:44;3.80;;;2.53;;
53688;SDS011;39583;54.682;30.662;2022-11-15T16:33:10;4.82;;;3.08;;
53688;SDS011;39583;54.682;30.662;2022-11-15T16:35:37;5.18;;;3.08;;
53688;SDS011;39583;54.682;30.662;2022-11-15T16:38:03;4.13;;;2.58;;
53688;SDS011;39583;54.682;30.662;2022-11-15T16:40:31;6.60;;;3.47;;
53688;SDS011;39583;54.682;30.662;2022-11-15T16:42:59;4.40;;;2.60;;
53688;SDS011;39583;54.682;30.662;2022-11-15T16:45:27;5.45;;;2.97;;
53688;SDS011;39583;54.682;30.662;2022-11-15T16:47:54;6.43;;;3.40;;
53688;SDS011;39583;54.682;30.662;2022-11-15T16:50:22;8.70;;;3.65;;
53688;SDS011;39583;54.682;30.662;2022-11-15T16:52:57;5.40;;;3.25;;
53688;SDS011;39583;54.682;30.662;2022-11-15T16:55:26;5.18;;;3.47;;
53688;SDS011;39583;54.682;30.662;2022-11-15T16:57:55;6.18;;;3.67;;
53688;SDS011;39583;54.682;30.662;2022-11-15T17:00:28;6.10;;;3.38;;
53688;SDS011;39583;54.682;30.662;2022-11-15T17:02:54;7.25;;;4.03;;
53688;SDS011;39583;54.682;30.662;2022-11-15T17:05:22;6.93;;;3.85;;
53688;SDS011;39583;54.682;30.662;2022-11-15T17:07:52;5.75;;;3.45;;
53688;SDS011;39583;54.682;30.662;2022-11-15T17:10:22;7.07;;;3.58;;
53688;SDS011;39583;54.682;30.662;2022-11-15T17:12:50;7.55;;;3.88;;
53688;SDS011;39583;54.682;30.662;2022-11-15T17:15:17;7.22;;;4.07;;
53688;SDS011;39583;54.682;30.662;2022-11-15T17:17:44;10.52;;;3.88;;
53688;SDS011;39583;54.682;30.662;2022-11-15T17:20:19;8.32;;;3.83;;
53688;SDS011;39583;54.682;30.662;2022-11-15T17:22:54;7.72;;;3.72;;
53688;SDS011;39583;54.682;30.662;2022-11-15T17:25:24;7.45;;;4.32;;
53688;SDS011;39583;54.682;30.662;2022-11-15T17:27:51;8.02;;;4.22;;
53688;SDS011;39583;54.682;30.662;2022-11-15T17:30:17;9.48;;;4.50;;
53688;SDS011;39583;54.682;30.662;2022-11-15T17:32:46;14.45;;;4.53;;
53688;SDS011;39583;54.682;30.662;2022-11-15T17:35:14;10.82;;;4.63;;
53688;SDS011;39583;54.682;30.662;2022-11-15T17:37:42;5.88;;;3.53;;
53688;SDS011;39583;54.682;30.662;2022-11-15T17:40:11;9.85;;;4.97;;
53688;SDS011;39583;54.682;30.662;2022-11-15T17:42:39;11.27;;;4.72;;
53688;SDS011;39583;54.682;30.662;2022-11-15T17:45:07;10.63;;;4.45;;
53688;SDS011;39583;54.682;30.662;2022-11-15T17:47:36;7.20;;;3.97;;
53688;SDS011;39583;54.682;30.662;2022-11-15T17:50:03;9.13;;;4.50;;
53688;SDS011;39583;54.682;30.662;2022-11-15T17:52:30;6.97;;;3.50;;
53688;SDS011;39583;54.682;30.662;2022-11-15T17:54:56;6.75;;;3.60;;
53688;SDS011;39583;54.682;30.662;2022-11-15T17:57:23;7.90;;;4.47;;
53688;SDS011;39583;54.682;30.662;2022-11-15T17:59:51;9.18;;;4.57;;
53688;SDS011;39583;54.682;30.662;2022-11-15T18:02:19;9.32;;;4.00;;
53688;SDS011;39583;54.682;30.662;2022-11-15T18:04:45;9.02;;;4.00;;
53688;SDS011;39583;54.682;30.662;2022-11-15T18:07:12;9.75;;;4.00;;
53688;SDS011;39583;54.682;30.662;2022-11-15T18:09:39;10.00;;;4.40;;
53688;SDS011;39583;54.682;30.662;2022-11-15T18:12:10;7.72;;;4.60;;
53688;SDS011;39583;54.682;30.662;2022-11-15T18:14:37;8.70;;;3.97;;
53688;SDS011;39583;54.682;30.662;2022-11-15T18:17:04;8.18;;;3.88;;
53688;SDS011;39583;54.682;30.662;2022-11-15T18:19:35;8.65;;;4.35;;
53688;SDS011;39583;54.682;30.662;2022-11-15T18:22:05;8.95;;;4.32;;
53688;SDS011;39583;54.682;30.662;2022-11-15T18:24:34;6.97;;;3.60;;
53688;SDS011;39583;54.682;30.662;2022-11-15T18:27:04;10.48;;;3.63;;
53688;SDS011;39583;54.682;30.662;2022-11-15T18:29:33;9.15;;;3.15;;
53688;SDS011;39583;54.682;30.662;2022-11-15T18:32:04;6.97;;;3.25;;
53688;SDS011;39583;54.682;30.662;2022-11-15T18:37:02;6.90;;;3.30;;
53688;SDS011;39583;54.682;30.662;2022-11-15T18:39:32;13.57;;;3.47;;
53688;SDS011;39583;54.682;30.662;2022-11-15T18:42:00;8.23;;;3.13;;
53688;SDS011;39583;54.682;30.662;2022-11-15T18:44:28;9.43;;;3.53;;
53688;SDS011;39583;54.682;30.662;2022-11-15T18:46:55;5.45;;;3.30;;
53688;SDS011;39583;54.682;30.662;2022-11-15T18:49:22;8.10;;;3.47;;
53688;SDS011;39583;54.682;30.662;2022-11-15T18:51:49;7.85;;;4.00;;
53688;SDS011;39583;54.682;30.662;2022-11-15T18:54:15;7.95;;;3.65;;
